Cape Fear, North Carolina
Current Conditions -  °F | °C
As of 10:53 AM on Wednesday 26 Nov 2014 (Local Time) from KILM Reporting Station
Light Rain Light Rain  
Wind Chill: 43°   Ceiling: 900
Heat Index: 49°   Visibility: 10mi
Dew Point: 48°   Wind: 16mph
Humidity: 97%   Direction: 320°NW
Pressure: 29.85"   Gusts: NA
Location:  34.2436°N, 77.9363°W
Report Text: KILM 261553Z 32014KT 10SM -RA OVC009 09/09 A2985 RMK AO2 PK WND 33026/1520 SLP108 P0010 T00940089
Loading
Personal Weather Stations






























Interactive Weather Map New forecast layout! Learn more

10-Day Weather Forecast

Advertisements
Track Severe Weather on mobile